createdAt,value
2018-03-30T00:00:43.169Z,10.3
2018-03-30T00:02:03.058Z,10
2018-03-30T00:03:25.429Z,10.1
2018-03-30T00:04:45.253Z,10.1
2018-03-30T00:06:07.605Z,10.2
2018-03-30T00:07:30.014Z,9.9
2018-03-30T00:08:49.864Z,10.1
2018-03-30T00:10:09.681Z,10
2018-03-30T00:11:32.042Z,9.9
2018-03-30T00:12:51.901Z,9.7
2018-03-30T00:14:11.733Z,9.6
2018-03-30T00:15:34.109Z,9.8
2018-03-30T00:17:01.505Z,9.7
2018-03-30T00:18:21.351Z,9.5
2018-03-30T00:19:41.174Z,9.9
2018-03-30T00:21:01.000Z,9.5
2018-03-30T00:22:25.888Z,9.7
2018-03-30T00:23:45.731Z,9.7
2018-03-30T00:25:05.555Z,9.9
2018-03-30T00:26:30.440Z,9.6
2018-03-30T00:27:52.784Z,9.7
2018-03-30T00:29:17.653Z,9.8
2018-03-30T00:30:37.452Z,9.9
2018-03-30T00:31:57.305Z,9.7
2018-03-30T00:33:17.121Z,9.5
2018-03-30T00:34:39.490Z,9.8
2018-03-30T00:35:59.302Z,9.7
2018-03-30T00:37:21.635Z,9.9
2018-03-30T00:38:49.033Z,9.8
2018-03-30T00:40:08.830Z,9.5
2018-03-30T00:41:31.160Z,9.6
2018-03-30T00:42:56.069Z,10
2018-03-30T00:44:26.027Z,9.8
2018-03-30T00:45:50.934Z,9.6
2018-03-30T00:47:13.278Z,9.5
2018-03-30T00:48:33.071Z,9.8
2018-03-30T00:49:52.936Z,9.8
2018-03-30T00:51:17.825Z,9.7
2018-03-30T00:52:37.638Z,9.8
2018-03-30T00:54:07.566Z,9.7
2018-03-30T00:55:34.969Z,9.8
2018-03-30T00:56:54.846Z,9.6
2018-03-30T00:58:14.698Z,9.8
2018-03-30T00:59:42.132Z,9.7
2018-03-30T01:01:01.933Z,9.9
2018-03-30T01:02:21.733Z,9.7
2018-03-30T01:03:41.541Z,9.7
2018-03-30T01:05:06.402Z,9.6
2018-03-30T01:06:26.254Z,9.8
2018-03-30T01:07:48.640Z,9.6
2018-03-30T01:09:10.991Z,9.9
2018-03-30T01:10:30.838Z,10
2018-03-30T01:11:50.674Z,9.8
2018-03-30T01:13:10.532Z,9.5
2018-03-30T01:14:35.425Z,9.4
2018-03-30T01:15:55.260Z,9.4
2018-03-30T01:17:22.677Z,9.4
2018-03-30T01:18:42.542Z,9.3
2018-03-30T01:20:04.926Z,9.5
2018-03-30T01:21:24.739Z,9.2
2018-03-30T01:22:47.063Z,9.1
2018-03-30T01:24:09.384Z,9.2
2018-03-30T01:25:36.777Z,9.6
2018-03-30T01:26:56.593Z,9.1
2018-03-30T01:28:21.478Z,9
2018-03-30T01:29:41.273Z,9
2018-03-30T01:31:01.121Z,8.9
2018-03-30T01:32:20.918Z,8.9
2018-03-30T01:33:45.807Z,8.7
2018-03-30T01:35:08.142Z,8.9
2018-03-30T01:36:33.062Z,8.8
2018-03-30T01:38:02.980Z,8.9
2018-03-30T01:39:22.838Z,9.1
2018-03-30T01:40:52.802Z,9.2
2018-03-30T01:42:12.596Z,9.2
2018-03-30T01:43:34.976Z,8.9
2018-03-30T01:45:09.991Z,8.9
2018-03-30T01:46:32.321Z,8.9
2018-03-30T01:47:52.136Z,9.2
2018-03-30T01:49:11.940Z,9.1
2018-03-30T01:50:36.794Z,9.2
2018-03-30T01:51:59.118Z,9.4
2018-03-30T01:53:18.913Z,9.2
2018-03-30T01:54:41.310Z,9.2
2018-03-30T01:56:06.168Z,9
2018-03-30T01:57:28.532Z,9.1
2018-03-30T01:58:58.511Z,8.7
2018-03-30T02:00:20.843Z,8.8
2018-03-30T02:01:45.747Z,8.9
2018-03-30T02:03:10.684Z,8.9
2018-03-30T02:04:33.025Z,8.9
2018-03-30T02:05:55.391Z,8.8
2018-03-30T02:07:15.251Z,9.1
2018-03-30T02:08:40.139Z,9.2
2018-03-30T02:10:02.513Z,9.1
2018-03-30T02:11:27.403Z,8.8
2018-03-30T02:12:49.745Z,8.7
2018-03-30T02:14:09.541Z,8.8
2018-03-30T02:15:29.396Z,8.7
2018-03-30T02:16:54.252Z,8.7
2018-03-30T02:18:14.053Z,8.6
2018-03-30T02:19:33.858Z,8.8
2018-03-30T02:21:03.768Z,8.6
2018-03-30T02:22:26.103Z,8.5
2018-03-30T02:23:45.957Z,8.6
2018-03-30T02:25:08.318Z,8.4
2018-03-30T02:26:28.116Z,8.5
2018-03-30T02:27:58.088Z,8.4
2018-03-30T02:29:20.484Z,8.5
2018-03-30T02:30:40.364Z,8.5
2018-03-30T02:32:00.187Z,8.5
2018-03-30T02:33:30.145Z,8.3
2018-03-30T02:34:52.533Z,8.4
2018-03-30T02:36:12.338Z,8.5
2018-03-30T02:37:37.245Z,8.4
2018-03-30T02:39:09.726Z,8.6
2018-03-30T02:40:32.073Z,8.5
2018-03-30T02:41:54.392Z,8.6
2018-03-30T02:43:16.725Z,8.6
2018-03-30T02:44:39.071Z,8.2
2018-03-30T02:45:58.866Z,8.4
2018-03-30T02:47:26.260Z,8.2
2018-03-30T02:48:46.094Z,8.4
2018-03-30T02:50:05.890Z,8.6
2018-03-30T02:51:25.687Z,8.5
2018-03-30T02:52:45.529Z,8.3
2018-03-30T02:54:07.863Z,8.1
2018-03-30T02:55:30.275Z,8.2
2018-03-30T02:56:50.102Z,8.1
2018-03-30T02:58:09.982Z,8.2
2018-03-30T02:59:29.807Z,8.3
2018-03-30T03:00:57.249Z,8.3
2018-03-30T03:02:19.662Z,8.4
2018-03-30T03:03:39.476Z,8.4
2018-03-30T03:04:59.297Z,8.3
2018-03-30T03:06:19.154Z,8.2
2018-03-30T03:07:46.543Z,7.9
2018-03-30T03:09:13.992Z,8.1
2018-03-30T03:10:36.329Z,8.3
2018-03-30T03:11:56.164Z,8.1
2018-03-30T03:13:21.073Z,8.2
2018-03-30T03:14:40.900Z,8.1
2018-03-30T03:16:05.807Z,8
2018-03-30T03:17:35.726Z,8
2018-03-30T03:18:55.575Z,8.4
2018-03-30T03:20:15.401Z,8.1
2018-03-30T03:21:37.729Z,7.7
2018-03-30T03:22:57.533Z,7.6
2018-03-30T03:24:17.340Z,8.1
2018-03-30T03:25:39.701Z,8.2
2018-03-30T03:26:59.590Z,8.2
2018-03-30T03:28:19.430Z,8.5
2018-03-30T03:29:39.263Z,8.6
2018-03-30T03:31:06.712Z,8.7
2018-03-30T03:32:29.059Z,8.5
2018-03-30T03:34:04.066Z,8.4
2018-03-30T03:35:23.867Z,8.5
2018-03-30T03:36:43.674Z,8.2
2018-03-30T03:38:05.997Z,8
2018-03-30T03:39:25.808Z,8.2
2018-03-30T03:40:50.661Z,8.1
2018-03-30T03:42:10.512Z,8.3
2018-03-30T03:43:30.352Z,8.2
2018-03-30T03:44:50.175Z,8.1
2018-03-30T03:46:10.040Z,8.1
2018-03-30T03:47:29.892Z,8.4
2018-03-30T03:48:49.744Z,8.3
2018-03-30T03:50:09.594Z,8.3
2018-03-30T03:51:34.529Z,8.4
2018-03-30T03:53:01.919Z,8.2
2018-03-30T03:54:21.715Z,8.3
2018-03-30T03:55:46.584Z,8.5
2018-03-30T03:57:11.496Z,8.3
2018-03-30T03:58:36.389Z,8.3
2018-03-30T03:59:58.709Z,8.2
2018-03-30T04:01:18.507Z,8.4
2018-03-30T04:02:40.828Z,8.4
2018-03-30T04:04:05.754Z,8.4
2018-03-30T04:05:25.553Z,8.4
2018-03-30T04:06:47.884Z,8.2
2018-03-30T04:08:07.688Z,8.3
2018-03-30T04:09:32.583Z,8.3
2018-03-30T04:10:57.455Z,8.4
2018-03-30T04:12:19.824Z,8.5
2018-03-30T04:13:44.719Z,8.7
2018-03-30T04:15:04.576Z,8.5
2018-03-30T04:16:24.406Z,8.3
2018-03-30T04:17:46.787Z,8.4
2018-03-30T04:19:16.717Z,8.4
2018-03-30T04:20:36.517Z,8.4
2018-03-30T04:21:56.317Z,8.4
2018-03-30T04:23:16.163Z,8.2
2018-03-30T04:24:41.093Z,8.3
2018-03-30T04:26:08.498Z,8.3
2018-03-30T04:27:30.877Z,8.7
2018-03-30T04:28:53.265Z,8.8
2018-03-30T04:30:13.078Z,8.5
2018-03-30T04:31:32.947Z,8.3
2018-03-30T04:32:55.270Z,8.4
2018-03-30T04:34:15.097Z,8.2
2018-03-30T04:35:39.988Z,8.2
2018-03-30T04:37:04.901Z,8.4
2018-03-30T04:38:24.756Z,8.6
2018-03-30T04:39:47.090Z,8.5
2018-03-30T04:41:14.561Z,8.6
2018-03-30T04:42:34.401Z,8.7
2018-03-30T04:43:54.278Z,8.6
2018-03-30T04:45:14.107Z,8.5
2018-03-30T04:46:38.999Z,8.3
2018-03-30T04:48:11.525Z,8
2018-03-30T04:49:31.322Z,8.3
2018-03-30T04:50:51.137Z,8.6
2018-03-30T04:52:13.463Z,8.3
2018-03-30T04:53:38.332Z,8.4
2018-03-30T04:55:08.286Z,8.7
2018-03-30T04:56:33.151Z,8.4
2018-03-30T04:57:52.958Z,8.7
2018-03-30T04:59:12.761Z,8.5
2018-03-30T05:00:35.121Z,8.4
2018-03-30T05:01:54.965Z,8.5
2018-03-30T05:03:17.311Z,8.5
2018-03-30T05:04:39.679Z,8.7
2018-03-30T05:05:59.500Z,8.5
2018-03-30T05:07:19.350Z,8.5
2018-03-30T05:08:39.202Z,8.3
2018-03-30T05:09:59.063Z,8.8
2018-03-30T05:11:26.489Z,8.8
2018-03-30T05:12:48.821Z,8.4
2018-03-30T05:14:11.203Z,8.6
2018-03-30T05:15:36.059Z,8.3
2018-03-30T05:16:55.877Z,8.7
2018-03-30T05:18:15.674Z,8.6
2018-03-30T05:19:38.041Z,8.7
2018-03-30T05:20:57.834Z,8.6
2018-03-30T05:22:17.686Z,8.3
2018-03-30T05:23:37.519Z,8.2
2018-03-30T05:25:02.390Z,8.3
2018-03-30T05:26:22.185Z,8.3
2018-03-30T05:27:44.590Z,8.3
2018-03-30T05:29:06.922Z,8.4
2018-03-30T05:30:29.276Z,8.3
2018-03-30T05:31:51.611Z,8.5
2018-03-30T05:33:11.406Z,8.4
2018-03-30T05:34:31.316Z,8.3
2018-03-30T05:35:51.185Z,8.4
2018-03-30T05:37:10.990Z,8.4
2018-03-30T05:38:33.355Z,8.3
2018-03-30T05:39:55.694Z,8.3
2018-03-30T05:41:23.123Z,8.6
2018-03-30T05:42:42.972Z,8.5
2018-03-30T05:44:07.840Z,8.6
2018-03-30T05:45:27.694Z,8.6
2018-03-30T05:46:50.031Z,8.3
2018-03-30T05:48:09.860Z,8.5
2018-03-30T05:49:32.193Z,8.3
2018-03-30T05:50:51.995Z,8.5
2018-03-30T05:52:11.802Z,8.5
2018-03-30T05:53:41.805Z,8.4
2018-03-30T05:55:16.806Z,8.2
2018-03-30T05:56:41.695Z,8.6
2018-03-30T05:58:06.550Z,8.3
2018-03-30T05:59:26.349Z,8.3
2018-03-30T06:00:46.161Z,8.2
2018-03-30T06:02:05.962Z,8.2
2018-03-30T06:03:28.309Z,8.2
2018-03-30T06:04:53.185Z,8.5
2018-03-30T06:06:12.984Z,8.9
2018-03-30T06:07:32.787Z,9.8
2018-03-30T06:08:52.619Z,9.3
2018-03-30T06:10:12.426Z,9.5
2018-03-30T06:11:34.802Z,9.3
2018-03-30T06:12:59.708Z,9.1
2018-03-30T06:14:19.574Z,9.2
2018-03-30T06:15:41.903Z,9.3
2018-03-30T06:17:04.261Z,9.3
2018-03-30T06:18:29.150Z,9.5
2018-03-30T06:19:48.977Z,9.6
2018-03-30T06:21:08.796Z,9.4
2018-03-30T06:22:38.735Z,9.6
2018-03-30T06:23:58.596Z,9.5
2018-03-30T06:25:18.466Z,9.2
2018-03-30T06:26:38.262Z,9.3
2018-03-30T06:28:03.158Z,9.4
2018-03-30T06:29:22.960Z,9.4
2018-03-30T06:30:42.771Z,9.3
2018-03-30T06:32:05.117Z,9.2
2018-03-30T06:33:24.918Z,9.3
2018-03-30T06:34:47.252Z,9.4
2018-03-30T06:36:12.120Z,9.4
2018-03-30T06:37:31.917Z,9.1
2018-03-30T06:38:59.336Z,9
2018-03-30T06:40:26.742Z,8.9
2018-03-30T06:41:46.546Z,9.2
2018-03-30T06:43:08.899Z,9.2
2018-03-30T06:44:28.732Z,9.2
2018-03-30T06:45:51.082Z,9.2
2018-03-30T06:47:13.406Z,9.4
2018-03-30T06:48:33.235Z,9.1
2018-03-30T06:49:53.069Z,9
2018-03-30T06:51:12.930Z,9.3
2018-03-30T06:52:32.726Z,9.6
2018-03-30T06:54:02.648Z,9.5
2018-03-30T06:55:30.056Z,9.6
2018-03-30T06:56:49.854Z,9.7
2018-03-30T06:58:17.241Z,9.9
2018-03-30T06:59:39.583Z,10.1
2018-03-30T07:00:59.419Z,10.1
2018-03-30T07:02:19.270Z,10.3
2018-03-30T07:03:41.667Z,10.3
2018-03-30T07:05:04.043Z,10.4
2018-03-30T07:06:23.883Z,10.4
2018-03-30T07:07:43.727Z,10.3
2018-03-30T07:09:03.629Z,10.4
2018-03-30T07:10:23.450Z,10.5
2018-03-30T07:11:43.303Z,10.6
2018-03-30T07:13:03.175Z,10.7
2018-03-30T07:14:25.522Z,10.6
2018-03-30T07:15:50.436Z,10.6
2018-03-30T07:17:12.796Z,10.6
2018-03-30T07:18:32.661Z,10.6
2018-03-30T07:19:52.477Z,10.5
2018-03-30T07:21:14.878Z,10.7
2018-03-30T07:22:37.243Z,10.7
2018-03-30T07:23:57.099Z,10.6
2018-03-30T07:25:16.915Z,10.5
2018-03-30T07:26:36.725Z,10.5
2018-03-30T07:27:59.097Z,10.3
2018-03-30T07:29:18.936Z,10.3
2018-03-30T07:30:41.284Z,9.9
2018-03-30T07:32:01.136Z,10.1
2018-03-30T07:33:20.971Z,10
2018-03-30T07:34:43.309Z,10.1
2018-03-30T07:36:05.713Z,9.9
2018-03-30T07:37:25.520Z,9.9
2018-03-30T07:38:47.888Z,9.8
2018-03-30T07:40:07.689Z,9.7
2018-03-30T07:41:30.066Z,9.6
2018-03-30T07:43:02.534Z,9.8
2018-03-30T07:44:24.882Z,10.1
2018-03-30T07:45:52.281Z,10.3
2018-03-30T07:47:14.665Z,10.3
2018-03-30T07:48:37.024Z,10.1
2018-03-30T07:50:06.976Z,10
2018-03-30T07:51:26.797Z,10.1
2018-03-30T07:52:49.162Z,10.2
2018-03-30T07:54:19.154Z,10.4
2018-03-30T07:55:44.107Z,10.7
2018-03-30T07:57:09.008Z,10.9
2018-03-30T07:58:28.846Z,10.9
2018-03-30T07:59:48.686Z,10.8
2018-03-30T08:01:16.114Z,10.9
2018-03-30T08:02:35.969Z,10.6
2018-03-30T08:04:00.856Z,10.6
2018-03-30T08:05:20.679Z,10.9
2018-03-30T08:06:43.060Z,10.9
2018-03-30T08:08:10.518Z,11.1
2018-03-30T08:09:35.405Z,11.2
2018-03-30T08:10:57.751Z,11
2018-03-30T08:12:20.150Z,11
2018-03-30T08:13:39.965Z,10.9
2018-03-30T08:14:59.806Z,11
2018-03-30T08:16:24.717Z,11.1
2018-03-30T08:17:44.536Z,10.9
2018-03-30T08:19:14.475Z,11
2018-03-30T08:20:36.815Z,10.8
2018-03-30T08:21:59.174Z,11.1
2018-03-30T08:23:19.030Z,11.1
2018-03-30T08:24:38.931Z,11.3
2018-03-30T08:26:08.885Z,11.5
2018-03-30T08:27:36.352Z,11.4
2018-03-30T08:28:56.209Z,11.6
2018-03-30T08:30:16.027Z,11.5
2018-03-30T08:31:38.445Z,11.6
2018-03-30T08:33:03.357Z,11.6
2018-03-30T08:34:28.265Z,11.7
2018-03-30T08:35:48.092Z,11.8
2018-03-30T08:37:07.926Z,11.7
2018-03-30T08:38:30.328Z,11.9
2018-03-30T08:39:50.143Z,12
2018-03-30T08:41:12.499Z,11.9
2018-03-30T08:42:32.347Z,11.8
2018-03-30T08:43:54.725Z,11.7
2018-03-30T08:45:14.580Z,11.9
2018-03-30T08:46:39.463Z,11.8
2018-03-30T08:48:22.036Z,11.9
2018-03-30T08:49:57.052Z,12
2018-03-30T08:51:16.920Z,12
2018-03-30T08:52:41.853Z,12
2018-03-30T08:54:09.267Z,12.1
2018-03-30T08:55:36.664Z,12.1
2018-03-30T08:56:56.479Z,12
2018-03-30T08:58:21.356Z,12.2
2018-03-30T08:59:46.222Z,12.1
2018-03-30T09:01:13.656Z,12
2018-03-30T09:02:33.499Z,11.9
2018-03-30T09:03:58.422Z,12
2018-03-30T09:05:41.037Z,11.9
2018-03-30T09:07:00.852Z,12
2018-03-30T09:08:20.679Z,12
2018-03-30T09:09:53.168Z,12.1
2018-03-30T09:11:13.002Z,12.2
2018-03-30T09:12:35.377Z,12.2
2018-03-30T09:13:55.262Z,12.1
2018-03-30T09:15:17.618Z,12.1
2018-03-30T09:16:40.027Z,12
2018-03-30T09:17:59.840Z,12.2
2018-03-30T09:19:34.847Z,12.2
2018-03-30T09:21:14.916Z,12.2
2018-03-30T09:22:34.729Z,12.1
2018-03-30T09:24:02.141Z,12.2
2018-03-30T09:25:21.970Z,12.1
2018-03-30T09:26:44.313Z,12.1
2018-03-30T09:28:06.680Z,12.1
2018-03-30T09:29:31.557Z,12.2
2018-03-30T09:30:51.374Z,12.3
2018-03-30T09:32:11.240Z,12.3
2018-03-30T09:33:41.171Z,12.3
2018-03-30T09:35:06.099Z,12.4
2018-03-30T09:36:28.466Z,12.5
2018-03-30T09:38:00.951Z,12.4
2018-03-30T09:39:20.798Z,12.3
2018-03-30T09:40:40.613Z,12.4
2018-03-30T09:42:00.429Z,12.3
2018-03-30T09:43:20.241Z,12.5
2018-03-30T09:44:50.189Z,12.5
2018-03-30T09:46:12.580Z,12.5
2018-03-30T09:47:37.473Z,12.7
2018-03-30T09:48:59.853Z,12.6
2018-03-30T09:50:19.671Z,12.7
2018-03-30T09:51:39.513Z,12.7
2018-03-30T09:53:01.912Z,12.7
2018-03-30T09:54:21.726Z,12.6
2018-03-30T09:55:41.579Z,12.6
2018-03-30T09:57:06.452Z,12.7
2018-03-30T09:58:46.539Z,12.7
2018-03-30T10:00:24.112Z,12.7
2018-03-30T10:01:51.580Z,12.6
2018-03-30T10:03:11.408Z,12.7
2018-03-30T10:04:36.308Z,12.8
2018-03-30T10:06:03.747Z,12.8
2018-03-30T10:07:28.665Z,12.8
2018-03-30T10:08:51.094Z,12.8
2018-03-30T10:10:13.492Z,12.8
2018-03-30T10:11:43.488Z,12.9
2018-03-30T10:13:16.004Z,12.9
2018-03-30T10:14:40.889Z,12.9
2018-03-30T10:16:03.263Z,12.9
2018-03-30T10:17:28.164Z,12.8
2018-03-30T10:18:50.506Z,12.8
2018-03-30T10:20:10.350Z,12.8
2018-03-30T10:21:30.218Z,12.8
2018-03-30T10:22:55.123Z,12.8
2018-03-30T10:24:14.946Z,12.9
2018-03-30T10:25:37.301Z,12.9
2018-03-30T10:26:59.651Z,12.9
2018-03-30T10:28:19.463Z,12.8
2018-03-30T10:29:44.337Z,12.7
2018-03-30T10:31:04.152Z,12.8
2018-03-30T10:32:29.028Z,12.8
2018-03-30T10:33:58.970Z,12.9
2018-03-30T10:35:18.803Z,13
2018-03-30T10:36:43.751Z,12.8
2018-03-30T10:38:08.637Z,12.9
2018-03-30T10:39:28.529Z,13
2018-03-30T10:40:50.886Z,13
2018-03-30T10:42:13.284Z,13.1
2018-03-30T10:43:35.704Z,13
2018-03-30T10:44:58.102Z,13.1
2018-03-30T10:46:17.944Z,13
2018-03-30T10:47:42.845Z,13
2018-03-30T10:49:07.742Z,13
2018-03-30T10:50:27.591Z,13
2018-03-30T10:51:55.009Z,13
2018-03-30T10:53:14.826Z,13.1
2018-03-30T10:54:37.197Z,13
2018-03-30T10:55:57.016Z,12.9
2018-03-30T10:57:21.963Z,12.9
2018-03-30T10:58:46.843Z,12.9
2018-03-30T11:00:06.662Z,13
2018-03-30T11:01:34.127Z,13
2018-03-30T11:02:56.479Z,13
2018-03-30T11:04:21.375Z,13
2018-03-30T11:05:46.326Z,13.1
2018-03-30T11:07:06.157Z,13.1
2018-03-30T11:08:28.508Z,13
2018-03-30T11:10:00.978Z,13.1
2018-03-30T11:11:20.822Z,13.1
2018-03-30T11:12:43.187Z,13
2018-03-30T11:14:03.079Z,13
2018-03-30T11:15:25.429Z,12.9
2018-03-30T11:16:50.339Z,12.9
2018-03-30T11:18:15.224Z,12.9
2018-03-30T11:19:35.092Z,12.9
2018-03-30T11:21:00.025Z,12.9
2018-03-30T11:22:27.446Z,13
2018-03-30T11:23:49.806Z,13.1
2018-03-30T11:25:09.622Z,13.1
2018-03-30T11:26:42.091Z,13.1
2018-03-30T11:28:01.928Z,13
2018-03-30T11:29:21.788Z,13
2018-03-30T11:30:41.647Z,13.1
2018-03-30T11:32:14.110Z,13.2
2018-03-30T11:33:44.108Z,13.1
2018-03-30T11:35:03.923Z,13.2
2018-03-30T11:36:23.794Z,13.2
2018-03-30T11:37:46.164Z,13.2
2018-03-30T11:39:05.980Z,13.2
2018-03-30T11:40:25.792Z,13.2
2018-03-30T11:41:48.209Z,13.2
2018-03-30T11:43:08.081Z,13.2
2018-03-30T11:44:27.923Z,13.2
2018-03-30T11:45:47.778Z,13.1
2018-03-30T11:47:07.671Z,13.1
2018-03-30T11:48:27.531Z,13.1
2018-03-30T11:49:47.377Z,13.2
2018-03-30T11:51:09.746Z,13.2
2018-03-30T11:52:32.091Z,13.3
2018-03-30T11:53:51.954Z,13.3
2018-03-30T11:55:11.767Z,13.3
2018-03-30T11:56:31.628Z,13.4
2018-03-30T11:57:53.989Z,13.5
2018-03-30T11:59:23.980Z,13.6
2018-03-30T12:00:48.914Z,13.7
2018-03-30T12:02:08.740Z,13.7
2018-03-30T12:03:33.634Z,13.6
2018-03-30T12:04:53.496Z,13.8
2018-03-30T12:06:15.884Z,13.8
2018-03-30T12:07:35.724Z,13.8
2018-03-30T12:09:00.604Z,13.7
2018-03-30T12:10:35.622Z,13.7
2018-03-30T12:11:55.436Z,13.8
2018-03-30T12:13:15.252Z,13.9
2018-03-30T12:14:35.108Z,13.9
2018-03-30T12:15:55.011Z,13.9
2018-03-30T12:17:24.962Z,13.8
2018-03-30T12:18:57.466Z,13.9
2018-03-30T12:20:17.304Z,14
2018-03-30T12:21:37.200Z,14
2018-03-30T12:22:59.550Z,14.1
2018-03-30T12:24:47.203Z,14.2
2018-03-30T12:26:12.080Z,14.2
2018-03-30T12:27:31.977Z,14.2
2018-03-30T12:28:54.373Z,14.2
2018-03-30T12:30:14.191Z,14.2
2018-03-30T12:31:36.557Z,14.2
2018-03-30T12:32:58.923Z,14.3
2018-03-30T12:34:21.313Z,14.3
2018-03-30T12:35:43.660Z,14.4
2018-03-30T12:37:03.668Z,14.5
2018-03-30T12:38:23.491Z,14.5
2018-03-30T12:39:43.321Z,14.6
2018-03-30T12:41:03.184Z,14.8
2018-03-30T12:42:23.102Z,14.9
2018-03-30T12:43:45.451Z,14.9
2018-03-30T12:45:05.270Z,15
2018-03-30T12:46:25.083Z,15.1
2018-03-30T12:47:44.906Z,15.2
2018-03-30T12:49:14.845Z,15.2
2018-03-30T12:50:34.665Z,15.3
2018-03-30T12:51:57.027Z,15.5
2018-03-30T12:53:19.423Z,15.7
2018-03-30T12:54:39.244Z,15.8
2018-03-30T12:55:59.087Z,15.9
2018-03-30T12:57:18.913Z,16
2018-03-30T12:58:38.738Z,16
2018-03-30T12:59:58.608Z,16
2018-03-30T13:01:23.499Z,16.3
2018-03-30T13:02:43.322Z,16.5
2018-03-30T13:04:03.185Z,16.5
2018-03-30T13:05:30.625Z,17.1
2018-03-30T13:06:50.472Z,17.3
2018-03-30T13:08:20.431Z,17.4
2018-03-30T13:09:40.278Z,17.6
2018-03-30T13:11:00.093Z,17.9
2018-03-30T13:12:22.466Z,18.1
2018-03-30T13:13:42.313Z,18.3
2018-03-30T13:15:09.720Z,18.3
2018-03-30T13:16:29.551Z,18.5
2018-03-30T13:17:51.917Z,18.8
2018-03-30T13:19:16.820Z,19
2018-03-30T13:20:36.716Z,19.4
2018-03-30T13:21:56.570Z,19.3
2018-03-30T13:23:26.503Z,19.4
2018-03-30T13:24:48.866Z,19.2
2018-03-30T13:26:13.754Z,19.5
2018-03-30T13:27:33.605Z,19.6
2018-03-30T13:28:53.427Z,19.7
2018-03-30T13:30:13.237Z,19.6
2018-03-30T13:31:35.590Z,19.7
2018-03-30T13:33:00.509Z,19.6
2018-03-30T13:34:20.324Z,19.6
2018-03-30T13:35:40.158Z,19.5
2018-03-30T13:37:02.595Z,19.6
2018-03-30T13:38:27.503Z,19.5
2018-03-30T13:39:57.503Z,19.4
2018-03-30T13:41:17.357Z,19.1
2018-03-30T13:42:44.812Z,19.1
2018-03-30T13:44:07.189Z,19.1
2018-03-30T13:45:27.074Z,19.1
2018-03-30T13:46:46.918Z,19.1
2018-03-30T13:48:06.734Z,19.1
2018-03-30T13:49:26.611Z,19.1
2018-03-30T13:50:46.453Z,19.1
2018-03-30T13:52:21.490Z,18.9
2018-03-30T13:53:51.470Z,18.9
2018-03-30T13:55:11.289Z,18.8
2018-03-30T13:56:38.711Z,18.8
2018-03-30T13:58:01.070Z,18.8
2018-03-30T13:59:28.477Z,18.7
2018-03-30T14:00:48.291Z,18.6
2018-03-30T14:02:15.721Z,18.6
2018-03-30T14:03:48.207Z,18.6
2018-03-30T14:05:10.556Z,18.5
2018-03-30T14:06:38.029Z,18.5
2018-03-30T14:08:00.394Z,18.5
2018-03-30T14:09:22.755Z,18.5
2018-03-30T14:10:42.596Z,18.5
2018-03-30T14:12:02.484Z,18.5
2018-03-30T14:13:22.368Z,18.5
2018-03-30T14:14:44.727Z,18.5
2018-03-30T14:16:04.547Z,18.5
2018-03-30T14:17:24.364Z,18.6
2018-03-30T14:18:51.885Z,18.6
2018-03-30T14:20:16.783Z,18.5
2018-03-30T14:21:41.672Z,18.5
2018-03-30T14:23:01.553Z,18.5
2018-03-30T14:24:23.976Z,18.5
2018-03-30T14:25:43.816Z,18.4
2018-03-30T14:27:03.629Z,18.4
2018-03-30T14:28:36.089Z,18.3
2018-03-30T14:29:55.909Z,18.3
2018-03-30T14:31:15.790Z,18.3
2018-03-30T14:32:43.222Z,18.2
2018-03-30T14:34:03.094Z,18.2
2018-03-30T14:35:22.958Z,18.1
2018-03-30T14:36:45.306Z,18.1
2018-03-30T14:38:05.145Z,18.1
2018-03-30T14:39:30.044Z,18
2018-03-30T14:40:49.860Z,18
2018-03-30T14:42:09.731Z,18
2018-03-30T14:43:29.554Z,17.9
2018-03-30T14:44:49.377Z,17.9
2018-03-30T14:46:16.846Z,17.9
2018-03-30T14:47:39.207Z,17.9
2018-03-30T14:49:06.656Z,17.8
2018-03-30T14:50:26.499Z,17.8
2018-03-30T14:51:46.341Z,17.7
2018-03-30T14:53:06.160Z,17.7
2018-03-30T14:54:31.110Z,17.7
2018-03-30T14:55:50.934Z,17.6
2018-03-30T14:57:10.753Z,17.5
2018-03-30T14:58:48.280Z,17.5
2018-03-30T15:00:08.135Z,17.5
2018-03-30T15:01:30.481Z,17.4
2018-03-30T15:02:50.343Z,17.4
2018-03-30T15:04:12.699Z,17.4
2018-03-30T15:05:35.049Z,17.4
2018-03-30T15:06:59.929Z,17.3
2018-03-30T15:08:19.743Z,17.3
2018-03-30T15:09:39.601Z,17.3
2018-03-30T15:10:59.416Z,17.2
2018-03-30T15:12:24.288Z,17.2
2018-03-30T15:13:46.658Z,17.2
2018-03-30T15:15:06.486Z,17.1
2018-03-30T15:16:26.351Z,17.1
2018-03-30T15:17:46.236Z,17.1
2018-03-30T15:19:11.146Z,17
2018-03-30T15:20:30.965Z,17.1
2018-03-30T15:21:53.319Z,17
2018-03-30T15:23:13.186Z,16.9
2018-03-30T15:24:33.001Z,16.9
2018-03-30T15:26:02.950Z,16.9
2018-03-30T15:27:22.809Z,16.8
2018-03-30T15:28:47.690Z,16.8
2018-03-30T15:30:07.548Z,16.8
2018-03-30T15:31:27.406Z,16.8
2018-03-30T15:32:59.892Z,16.8
2018-03-30T15:34:19.732Z,16.8
2018-03-30T15:35:39.546Z,16.8
2018-03-30T15:37:04.457Z,16.9
2018-03-30T15:38:26.837Z,17
2018-03-30T15:39:56.798Z,17.1
2018-03-30T15:41:21.731Z,17.3
2018-03-30T15:42:49.192Z,17.5
2018-03-30T15:44:09.011Z,17.5
2018-03-30T15:45:28.828Z,17.5
2018-03-30T15:46:48.705Z,17.5
2018-03-30T15:48:08.531Z,17.6
2018-03-30T15:49:35.941Z,17.7
2018-03-30T15:51:00.815Z,17.7
2018-03-30T15:52:28.228Z,17.8
2018-03-30T15:53:55.683Z,17.9
2018-03-30T15:55:20.567Z,18.1
2018-03-30T15:56:40.387Z,18.2
2018-03-30T15:58:00.195Z,18.3
2018-03-30T15:59:20.018Z,18.4
2018-03-30T16:00:44.888Z,18.6
2018-03-30T16:02:04.709Z,18.5
2018-03-30T16:03:24.521Z,18.6
2018-03-30T16:04:44.339Z,18.4
2018-03-30T16:06:04.149Z,18.3
2018-03-30T16:07:29.029Z,18.3
2018-03-30T16:08:48.870Z,18.3
2018-03-30T16:10:11.228Z,18.2
2018-03-30T16:11:33.606Z,18.1
2018-03-30T16:12:58.498Z,17.9
2018-03-30T16:14:23.363Z,18
2018-03-30T16:15:45.741Z,18
2018-03-30T16:17:05.563Z,18
2018-03-30T16:18:25.388Z,17.9
2018-03-30T16:19:47.739Z,17.7
2018-03-30T16:21:07.565Z,17.8
2018-03-30T16:22:27.390Z,17.7
2018-03-30T16:23:59.876Z,17.8
2018-03-30T16:25:19.705Z,17.8
2018-03-30T16:26:42.123Z,17.7
2018-03-30T16:28:04.519Z,17.9
2018-03-30T16:29:26.906Z,17.9
2018-03-30T16:30:46.768Z,17.8
2018-03-30T16:32:09.110Z,17.7
2018-03-30T16:33:28.930Z,17.5
2018-03-30T16:34:48.739Z,17.6
2018-03-30T16:36:08.557Z,17.4
2018-03-30T16:37:28.369Z,17.5
2018-03-30T16:38:48.190Z,17.5
2018-03-30T16:40:08.030Z,17.4
2018-03-30T16:41:30.375Z,17.4
2018-03-30T16:42:52.719Z,17.3
2018-03-30T16:44:17.601Z,17.3
2018-03-30T16:45:42.507Z,17.3
2018-03-30T16:47:04.846Z,17.2
2018-03-30T16:48:27.202Z,17.1
2018-03-30T16:49:47.042Z,17.2
2018-03-30T16:51:09.388Z,17.1
2018-03-30T16:52:31.803Z,17
2018-03-30T16:53:54.161Z,16.9
2018-03-30T16:55:13.973Z,16.9
2018-03-30T16:56:36.348Z,16.9
2018-03-30T16:57:56.221Z,16.8
2018-03-30T16:59:16.077Z,16.7
2018-03-30T17:00:43.494Z,16.6
2018-03-30T17:02:10.891Z,16.6
2018-03-30T17:03:38.364Z,16.5
2018-03-30T17:05:00.718Z,16.4
2018-03-30T17:06:20.564Z,16.4
2018-03-30T17:07:42.910Z,16.3
2018-03-30T17:09:28.049Z,16.2
2018-03-30T17:10:52.919Z,16.2
2018-03-30T17:12:12.753Z,16.1
2018-03-30T17:13:32.564Z,16
2018-03-30T17:14:52.395Z,15.9
2018-03-30T17:16:12.210Z,15.8
2018-03-30T17:17:32.082Z,15.7
2018-03-30T17:18:54.432Z,15.7
2018-03-30T17:20:16.827Z,15.6
2018-03-30T17:21:36.667Z,15.6
2018-03-30T17:22:56.508Z,15.5
2018-03-30T17:24:21.450Z,15.5
2018-03-30T17:25:46.352Z,15.5
2018-03-30T17:27:13.776Z,15.4
2018-03-30T17:28:38.700Z,15.4
2018-03-30T17:29:58.521Z,15.3
2018-03-30T17:31:18.356Z,15.2
2018-03-30T17:32:40.740Z,15.2
2018-03-30T17:34:00.570Z,15.2
2018-03-30T17:35:20.434Z,15.2
2018-03-30T17:36:47.872Z,15.2
2018-03-30T17:38:07.691Z,15.1
2018-03-30T17:39:27.552Z,15
2018-03-30T17:40:49.897Z,15.1
2018-03-30T17:42:09.732Z,15
2018-03-30T17:43:29.603Z,15
2018-03-30T17:44:51.960Z,14.9
2018-03-30T17:46:11.836Z,14.9
2018-03-30T17:47:34.191Z,14.9
2018-03-30T17:48:54.019Z,14.8
2018-03-30T17:50:18.932Z,14.7
2018-03-30T17:51:43.810Z,14.7
2018-03-30T17:53:03.662Z,14.6
2018-03-30T17:54:23.474Z,14.6
2018-03-30T17:55:43.290Z,14.6
2018-03-30T17:57:03.100Z,14.6
2018-03-30T17:58:25.484Z,14.5
2018-03-30T17:59:45.354Z,14.6
2018-03-30T18:01:05.173Z,14.6
2018-03-30T18:02:37.650Z,14.6
2018-03-30T18:04:00.025Z,14.6
2018-03-30T18:05:19.839Z,14.6
2018-03-30T18:06:39.715Z,14.5
2018-03-30T18:07:59.562Z,14.5
2018-03-30T18:09:21.936Z,14.4
2018-03-30T18:10:49.337Z,14.4
2018-03-30T18:12:09.148Z,14.4
2018-03-30T18:13:31.580Z,14.3
2018-03-30T18:14:51.422Z,14.3
2018-03-30T18:16:26.464Z,14.3
2018-03-30T18:17:46.305Z,14.3
2018-03-30T18:19:06.149Z,14.5
2018-03-30T18:20:28.490Z,14.8
2018-03-30T18:21:55.928Z,14.8
2018-03-30T18:23:15.774Z,15
2018-03-30T18:24:45.728Z,15.4
2018-03-30T18:26:20.749Z,15.4
2018-03-30T18:27:50.697Z,15.6
2018-03-30T18:29:18.105Z,15.7
2018-03-30T18:30:50.606Z,15.7
2018-03-30T18:32:13.026Z,15.8
2018-03-30T18:33:32.842Z,15.9
2018-03-30T18:34:55.198Z,16
2018-03-30T18:36:25.167Z,16
2018-03-30T18:37:52.572Z,16.2
2018-03-30T18:39:19.978Z,16.3
2018-03-30T18:40:49.968Z,16.4
2018-03-30T18:42:12.331Z,16.7